Port Griffith, Pennsylvania
Current Conditions -  °F | °C
As of 12:25 PM on Monday 22 Dec 2014 (Local Time) from KAVP Reporting Station
Scattered Clouds Scattered Clouds  
Wind Chill:   Ceiling: Unl
Heat Index:   Visibility: 10mi
Dew Point: -2°   Wind: 7mph
Humidity: 60%   Direction: 150°SSE
Pressure: 30.19"   Gusts: NA
Location:  41.2973°N, 75.7399°W
Report Text: KAVP 221725Z AUTO 15006KT 10SM SCT024 06/M02 A3019 RMK AO2 T00561017
Loading
Personal Weather Stations






























Interactive Weather Map New forecast layout! Learn more

10-Day Weather Forecast

Advertisements
Track Severe Weather on mobile